sensor_id;sensor_type;location;lat;lon;timestamp;P1;durP1;ratioP1;P2;durP2;ratioP2
20207;SDS011;10263;48.716;8.760;2024-01-07T00:02:25;14.90;;;5.83;;
20207;SDS011;10263;48.716;8.760;2024-01-07T00:04:52;32.70;;;7.23;;
20207;SDS011;10263;48.716;8.760;2024-01-07T00:07:18;37.73;;;6.77;;
20207;SDS011;10263;48.716;8.760;2024-01-07T00:09:46;56.97;;;8.53;;
20207;SDS011;10263;48.716;8.760;2024-01-07T00:12:13;35.10;;;7.07;;
20207;SDS011;10263;48.716;8.760;2024-01-07T00:14:40;58.10;;;8.50;;
20207;SDS011;10263;48.716;8.760;2024-01-07T00:17:07;14.20;;;5.93;;
20207;SDS011;10263;48.716;8.760;2024-01-07T00:19:36;24.70;;;6.27;;
20207;SDS011;10263;48.716;8.760;2024-01-07T00:22:03;20.90;;;6.53;;
20207;SDS011;10263;48.716;8.760;2024-01-07T00:24:30;37.27;;;8.37;;
20207;SDS011;10263;48.716;8.760;2024-01-07T00:26:57;37.93;;;6.80;;
20207;SDS011;10263;48.716;8.760;2024-01-07T00:29:23;14.33;;;6.23;;
20207;SDS011;10263;48.716;8.760;2024-01-07T00:31:50;47.43;;;7.00;;
20207;SDS011;10263;48.716;8.760;2024-01-07T00:34:17;20.43;;;7.00;;
20207;SDS011;10263;48.716;8.760;2024-01-07T00:36:45;54.20;;;8.10;;
20207;SDS011;10263;48.716;8.760;2024-01-07T00:39:12;10.83;;;5.77;;
20207;SDS011;10263;48.716;8.760;2024-01-07T00:41:39;18.07;;;7.00;;
20207;SDS011;10263;48.716;8.760;2024-01-07T00:44:06;13.63;;;6.23;;
20207;SDS011;10263;48.716;8.760;2024-01-07T00:46:33;14.63;;;7.40;;
20207;SDS011;10263;48.716;8.760;2024-01-07T00:49:00;15.43;;;8.43;;
20207;SDS011;10263;48.716;8.760;2024-01-07T00:51:27;10.90;;;6.00;;
20207;SDS011;10263;48.716;8.760;2024-01-07T00:53:55;8.37;;;4.93;;
20207;SDS011;10263;48.716;8.760;2024-01-07T00:56:25;6.13;;;4.30;;
20207;SDS011;10263;48.716;8.760;2024-01-07T00:58:51;6.60;;;4.23;;
20207;SDS011;10263;48.716;8.760;2024-01-07T01:01:18;5.13;;;3.40;;
20207;SDS011;10263;48.716;8.760;2024-01-07T01:03:45;5.13;;;3.60;;
20207;SDS011;10263;48.716;8.760;2024-01-07T01:06:12;5.27;;;3.40;;
20207;SDS011;10263;48.716;8.760;2024-01-07T01:08:39;5.13;;;4.07;;
20207;SDS011;10263;48.716;8.760;2024-01-07T01:11:09;4.53;;;3.33;;
20207;SDS011;10263;48.716;8.760;2024-01-07T01:13:36;5.33;;;3.47;;
20207;SDS011;10263;48.716;8.760;2024-01-07T01:16:04;3.73;;;3.10;;
20207;SDS011;10263;48.716;8.760;2024-01-07T01:18:31;5.90;;;3.77;;
20207;SDS011;10263;48.716;8.760;2024-01-07T01:20:58;4.77;;;3.50;;
20207;SDS011;10263;48.716;8.760;2024-01-07T01:23:24;4.87;;;3.50;;
20207;SDS011;10263;48.716;8.760;2024-01-07T01:25:51;6.83;;;4.30;;
20207;SDS011;10263;48.716;8.760;2024-01-07T01:28:20;6.17;;;4.10;;
20207;SDS011;10263;48.716;8.760;2024-01-07T01:30:46;9.40;;;4.37;;
20207;SDS011;10263;48.716;8.760;2024-01-07T01:33:13;6.13;;;4.27;;
20207;SDS011;10263;48.716;8.760;2024-01-07T01:35:40;10.03;;;5.53;;
20207;SDS011;10263;48.716;8.760;2024-01-07T01:38:07;11.60;;;6.40;;
20207;SDS011;10263;48.716;8.760;2024-01-07T01:40:34;8.40;;;4.37;;
20207;SDS011;10263;48.716;8.760;2024-01-07T01:43:00;8.03;;;5.60;;
20207;SDS011;10263;48.716;8.760;2024-01-07T01:45:28;13.77;;;5.20;;
20207;SDS011;10263;48.716;8.760;2024-01-07T01:47:55;18.13;;;6.00;;
20207;SDS011;10263;48.716;8.760;2024-01-07T01:50:22;36.57;;;6.73;;
20207;SDS011;10263;48.716;8.760;2024-01-07T01:52:50;14.07;;;4.93;;
20207;SDS011;10263;48.716;8.760;2024-01-07T01:55:17;45.03;;;7.03;;
20207;SDS011;10263;48.716;8.760;2024-01-07T01:57:45;27.17;;;6.33;;
20207;SDS011;10263;48.716;8.760;2024-01-07T02:00:14;19.87;;;5.93;;
20207;SDS011;10263;48.716;8.760;2024-01-07T02:02:42;37.43;;;6.00;;
20207;SDS011;10263;48.716;8.760;2024-01-07T02:05:09;22.07;;;5.97;;
20207;SDS011;10263;48.716;8.760;2024-01-07T02:07:38;11.67;;;5.03;;
20207;SDS011;10263;48.716;8.760;2024-01-07T02:10:06;53.87;;;7.80;;
20207;SDS011;10263;48.716;8.760;2024-01-07T02:12:33;18.70;;;5.60;;
20207;SDS011;10263;48.716;8.760;2024-01-07T02:15:00;48.03;;;7.63;;
20207;SDS011;10263;48.716;8.760;2024-01-07T02:17:27;21.63;;;6.70;;
20207;SDS011;10263;48.716;8.760;2024-01-07T02:19:55;16.93;;;6.03;;
20207;SDS011;10263;48.716;8.760;2024-01-07T02:22:22;15.17;;;5.40;;
20207;SDS011;10263;48.716;8.760;2024-01-07T02:24:50;14.33;;;5.17;;
20207;SDS011;10263;48.716;8.760;2024-01-07T02:27:17;8.10;;;5.20;;
20207;SDS011;10263;48.716;8.760;2024-01-07T02:29:44;8.57;;;5.33;;
20207;SDS011;10263;48.716;8.760;2024-01-07T02:32:11;6.17;;;4.03;;
20207;SDS011;10263;48.716;8.760;2024-01-07T02:34:37;6.00;;;4.33;;
20207;SDS011;10263;48.716;8.760;2024-01-07T02:37:05;7.03;;;4.03;;
20207;SDS011;10263;48.716;8.760;2024-01-07T02:39:31;6.00;;;4.00;;
20207;SDS011;10263;48.716;8.760;2024-01-07T02:41:59;5.10;;;3.23;;
20207;SDS011;10263;48.716;8.760;2024-01-07T02:44:26;3.73;;;2.77;;
20207;SDS011;10263;48.716;8.760;2024-01-07T02:46:53;4.27;;;2.77;;
20207;SDS011;10263;48.716;8.760;2024-01-07T02:49:21;3.50;;;2.40;;
20207;SDS011;10263;48.716;8.760;2024-01-07T02:51:47;3.37;;;2.63;;
20207;SDS011;10263;48.716;8.760;2024-01-07T02:54:15;3.07;;;2.23;;
20207;SDS011;10263;48.716;8.760;2024-01-07T02:56:42;3.07;;;2.03;;
20207;SDS011;10263;48.716;8.760;2024-01-07T02:59:10;2.77;;;2.00;;
20207;SDS011;10263;48.716;8.760;2024-01-07T03:01:37;2.17;;;1.90;;
20207;SDS011;10263;48.716;8.760;2024-01-07T03:04:06;4.17;;;2.40;;
20207;SDS011;10263;48.716;8.760;2024-01-07T03:06:33;3.50;;;2.30;;
20207;SDS011;10263;48.716;8.760;2024-01-07T03:08:59;2.93;;;2.20;;
20207;SDS011;10263;48.716;8.760;2024-01-07T03:11:27;3.20;;;2.10;;
20207;SDS011;10263;48.716;8.760;2024-01-07T03:13:54;4.40;;;2.40;;
20207;SDS011;10263;48.716;8.760;2024-01-07T03:16:23;5.67;;;3.73;;
20207;SDS011;10263;48.716;8.760;2024-01-07T03:18:50;6.50;;;4.03;;
20207;SDS011;10263;48.716;8.760;2024-01-07T03:21:18;7.27;;;3.97;;
20207;SDS011;10263;48.716;8.760;2024-01-07T03:23:45;8.53;;;3.40;;
20207;SDS011;10263;48.716;8.760;2024-01-07T03:26:12;19.53;;;5.33;;
20207;SDS011;10263;48.716;8.760;2024-01-07T03:28:39;12.23;;;4.37;;
20207;SDS011;10263;48.716;8.760;2024-01-07T03:31:07;20.90;;;5.33;;
20207;SDS011;10263;48.716;8.760;2024-01-07T03:33:37;26.93;;;6.23;;
20207;SDS011;10263;48.716;8.760;2024-01-07T03:36:06;24.70;;;5.00;;
20207;SDS011;10263;48.716;8.760;2024-01-07T03:38:34;65.17;;;7.97;;
20207;SDS011;10263;48.716;8.760;2024-01-07T03:41:01;27.53;;;6.30;;
20207;SDS011;10263;48.716;8.760;2024-01-07T03:43:28;27.80;;;6.23;;
20207;SDS011;10263;48.716;8.760;2024-01-07T03:45:55;40.33;;;7.17;;
20207;SDS011;10263;48.716;8.760;2024-01-07T03:48:22;16.07;;;5.30;;
20207;SDS011;10263;48.716;8.760;2024-01-07T03:50:50;64.33;;;8.83;;
20207;SDS011;10263;48.716;8.760;2024-01-07T03:53:16;133.93;;;15.20;;
20207;SDS011;10263;48.716;8.760;2024-01-07T03:55:44;47.43;;;7.50;;
20207;SDS011;10263;48.716;8.760;2024-01-07T03:58:10;59.07;;;9.83;;
20207;SDS011;10263;48.716;8.760;2024-01-07T04:00:37;67.93;;;10.13;;
20207;SDS011;10263;48.716;8.760;2024-01-07T04:03:04;42.70;;;8.67;;
20207;SDS011;10263;48.716;8.760;2024-01-07T04:05:31;24.73;;;6.33;;
20207;SDS011;10263;48.716;8.760;2024-01-07T04:07:59;119.73;;;14.10;;
20207;SDS011;10263;48.716;8.760;2024-01-07T04:10:26;49.07;;;8.10;;
20207;SDS011;10263;48.716;8.760;2024-01-07T04:12:53;57.10;;;7.97;;
20207;SDS011;10263;48.716;8.760;2024-01-07T04:15:20;221.87;;;17.83;;
20207;SDS011;10263;48.716;8.760;2024-01-07T04:17:47;145.90;;;13.33;;
20207;SDS011;10263;48.716;8.760;2024-01-07T04:20:14;76.97;;;10.70;;
20207;SDS011;10263;48.716;8.760;2024-01-07T04:22:41;49.93;;;8.93;;
20207;SDS011;10263;48.716;8.760;2024-01-07T04:25:09;118.67;;;16.03;;
20207;SDS011;10263;48.716;8.760;2024-01-07T04:27:36;147.83;;;12.30;;
20207;SDS011;10263;48.716;8.760;2024-01-07T04:30:03;79.07;;;9.40;;
20207;SDS011;10263;48.716;8.760;2024-01-07T04:32:31;79.97;;;9.73;;
20207;SDS011;10263;48.716;8.760;2024-01-07T04:34:58;104.57;;;15.20;;
20207;SDS011;10263;48.716;8.760;2024-01-07T04:37:25;66.37;;;10.13;;
20207;SDS011;10263;48.716;8.760;2024-01-07T04:39:52;90.13;;;12.63;;
20207;SDS011;10263;48.716;8.760;2024-01-07T04:42:20;24.27;;;7.07;;
20207;SDS011;10263;48.716;8.760;2024-01-07T04:44:47;30.07;;;7.33;;
20207;SDS011;10263;48.716;8.760;2024-01-07T04:47:26;48.60;;;8.43;;
20207;SDS011;10263;48.716;8.760;2024-01-07T04:49:53;33.83;;;7.93;;
20207;SDS011;10263;48.716;8.760;2024-01-07T04:52:21;53.90;;;11.27;;
20207;SDS011;10263;48.716;8.760;2024-01-07T04:54:48;38.13;;;9.87;;
20207;SDS011;10263;48.716;8.760;2024-01-07T04:57:15;33.80;;;7.83;;
20207;SDS011;10263;48.716;8.760;2024-01-07T04:59:43;23.60;;;8.40;;
20207;SDS011;10263;48.716;8.760;2024-01-07T05:02:10;12.43;;;6.93;;
20207;SDS011;10263;48.716;8.760;2024-01-07T05:04:37;13.10;;;6.93;;
20207;SDS011;10263;48.716;8.760;2024-01-07T05:07:04;10.43;;;7.10;;
20207;SDS011;10263;48.716;8.760;2024-01-07T05:09:31;13.20;;;7.20;;
20207;SDS011;10263;48.716;8.760;2024-01-07T05:11:59;12.83;;;7.73;;
20207;SDS011;10263;48.716;8.760;2024-01-07T05:14:25;12.23;;;6.80;;
20207;SDS011;10263;48.716;8.760;2024-01-07T05:16:54;16.37;;;7.67;;
20207;SDS011;10263;48.716;8.760;2024-01-07T05:19:21;12.43;;;7.10;;
20207;SDS011;10263;48.716;8.760;2024-01-07T05:21:47;10.87;;;6.70;;
20207;SDS011;10263;48.716;8.760;2024-01-07T05:24:14;10.93;;;7.40;;
20207;SDS011;10263;48.716;8.760;2024-01-07T05:26:41;13.17;;;7.83;;
20207;SDS011;10263;48.716;8.760;2024-01-07T05:29:09;13.37;;;7.10;;
20207;SDS011;10263;48.716;8.760;2024-01-07T05:31:36;12.90;;;7.37;;
20207;SDS011;10263;48.716;8.760;2024-01-07T05:34:05;11.50;;;6.33;;
20207;SDS011;10263;48.716;8.760;2024-01-07T05:36:32;10.80;;;6.73;;
20207;SDS011;10263;48.716;8.760;2024-01-07T05:38:59;10.13;;;6.10;;
20207;SDS011;10263;48.716;8.760;2024-01-07T05:41:26;11.03;;;6.63;;
20207;SDS011;10263;48.716;8.760;2024-01-07T05:43:54;9.57;;;6.60;;
20207;SDS011;10263;48.716;8.760;2024-01-07T05:46:21;10.30;;;6.33;;
20207;SDS011;10263;48.716;8.760;2024-01-07T05:48:48;9.87;;;5.93;;
20207;SDS011;10263;48.716;8.760;2024-01-07T05:51:16;12.13;;;6.57;;
20207;SDS011;10263;48.716;8.760;2024-01-07T05:53:43;11.33;;;6.90;;
20207;SDS011;10263;48.716;8.760;2024-01-07T05:56:11;11.23;;;5.90;;
20207;SDS011;10263;48.716;8.760;2024-01-07T05:58:38;11.77;;;6.10;;
20207;SDS011;10263;48.716;8.760;2024-01-07T06:01:05;9.70;;;5.37;;
20207;SDS011;10263;48.716;8.760;2024-01-07T06:03:33;10.47;;;6.30;;
20207;SDS011;10263;48.716;8.760;2024-01-07T06:06:00;8.30;;;5.53;;
20207;SDS011;10263;48.716;8.760;2024-01-07T06:08:28;9.40;;;5.27;;
20207;SDS011;10263;48.716;8.760;2024-01-07T06:10:55;9.23;;;5.60;;
20207;SDS011;10263;48.716;8.760;2024-01-07T06:13:23;7.07;;;4.67;;
20207;SDS011;10263;48.716;8.760;2024-01-07T06:15:49;7.93;;;5.07;;
20207;SDS011;10263;48.716;8.760;2024-01-07T06:18:17;6.40;;;4.47;;
20207;SDS011;10263;48.716;8.760;2024-01-07T06:20:43;5.97;;;3.90;;
20207;SDS011;10263;48.716;8.760;2024-01-07T06:23:10;7.60;;;4.40;;
20207;SDS011;10263;48.716;8.760;2024-01-07T06:25:38;8.23;;;4.97;;
20207;SDS011;10263;48.716;8.760;2024-01-07T06:28:05;7.30;;;4.73;;
20207;SDS011;10263;48.716;8.760;2024-01-07T06:30:32;5.53;;;3.87;;
20207;SDS011;10263;48.716;8.760;2024-01-07T06:32:59;6.33;;;4.40;;
20207;SDS011;10263;48.716;8.760;2024-01-07T06:35:26;8.37;;;4.97;;
20207;SDS011;10263;48.716;8.760;2024-01-07T06:37:53;7.17;;;4.97;;
20207;SDS011;10263;48.716;8.760;2024-01-07T06:40:20;8.43;;;5.30;;
20207;SDS011;10263;48.716;8.760;2024-01-07T06:42:49;9.30;;;5.50;;
20207;SDS011;10263;48.716;8.760;2024-01-07T06:45:16;6.80;;;4.70;;
20207;SDS011;10263;48.716;8.760;2024-01-07T06:47:43;6.67;;;4.77;;
20207;SDS011;10263;48.716;8.760;2024-01-07T06:50:11;6.57;;;4.60;;
20207;SDS011;10263;48.716;8.760;2024-01-07T06:52:38;7.33;;;5.00;;
20207;SDS011;10263;48.716;8.760;2024-01-07T06:55:06;7.87;;;4.70;;
20207;SDS011;10263;48.716;8.760;2024-01-07T06:57:33;9.00;;;5.77;;
20207;SDS011;10263;48.716;8.760;2024-01-07T07:00:02;7.27;;;5.37;;
20207;SDS011;10263;48.716;8.760;2024-01-07T07:02:29;10.20;;;5.50;;
20207;SDS011;10263;48.716;8.760;2024-01-07T07:04:56;6.37;;;4.87;;
20207;SDS011;10263;48.716;8.760;2024-01-07T07:07:23;5.70;;;4.87;;
20207;SDS011;10263;48.716;8.760;2024-01-07T07:09:50;6.70;;;4.73;;
20207;SDS011;10263;48.716;8.760;2024-01-07T07:12:18;7.63;;;4.93;;
20207;SDS011;10263;48.716;8.760;2024-01-07T07:14:45;8.03;;;5.63;;
20207;SDS011;10263;48.716;8.760;2024-01-07T07:17:14;8.40;;;5.57;;
20207;SDS011;10263;48.716;8.760;2024-01-07T07:19:41;8.13;;;5.87;;
20207;SDS011;10263;48.716;8.760;2024-01-07T07:22:08;9.80;;;7.10;;
20207;SDS011;10263;48.716;8.760;2024-01-07T07:24:35;8.77;;;6.30;;
20207;SDS011;10263;48.716;8.760;2024-01-07T07:27:06;9.57;;;6.60;;
20207;SDS011;10263;48.716;8.760;2024-01-07T07:29:33;9.47;;;7.00;;
20207;SDS011;10263;48.716;8.760;2024-01-07T07:32:00;11.10;;;7.73;;
20207;SDS011;10263;48.716;8.760;2024-01-07T07:34:29;9.07;;;6.23;;
20207;SDS011;10263;48.716;8.760;2024-01-07T07:36:55;8.60;;;6.33;;
20207;SDS011;10263;48.716;8.760;2024-01-07T07:39:23;8.03;;;5.93;;
20207;SDS011;10263;48.716;8.760;2024-01-07T07:41:49;9.47;;;6.57;;
20207;SDS011;10263;48.716;8.760;2024-01-07T07:44:16;8.00;;;6.33;;
20207;SDS011;10263;48.716;8.760;2024-01-07T07:46:43;7.83;;;6.00;;
20207;SDS011;10263;48.716;8.760;2024-01-07T07:49:11;9.47;;;6.33;;
20207;SDS011;10263;48.716;8.760;2024-01-07T07:51:39;8.30;;;6.43;;
20207;SDS011;10263;48.716;8.760;2024-01-07T07:54:06;9.40;;;6.50;;
20207;SDS011;10263;48.716;8.760;2024-01-07T07:56:33;8.47;;;6.07;;
20207;SDS011;10263;48.716;8.760;2024-01-07T07:59:01;8.27;;;6.20;;
20207;SDS011;10263;48.716;8.760;2024-01-07T08:01:27;8.13;;;6.60;;
20207;SDS011;10263;48.716;8.760;2024-01-07T08:03:55;9.23;;;6.97;;
20207;SDS011;10263;48.716;8.760;2024-01-07T08:06:22;9.03;;;5.93;;
20207;SDS011;10263;48.716;8.760;2024-01-07T08:08:50;8.77;;;5.97;;
20207;SDS011;10263;48.716;8.760;2024-01-07T08:11:17;7.90;;;6.13;;
20207;SDS011;10263;48.716;8.760;2024-01-07T08:13:44;10.27;;;6.73;;
20207;SDS011;10263;48.716;8.760;2024-01-07T08:16:10;11.10;;;6.60;;
20207;SDS011;10263;48.716;8.760;2024-01-07T08:18:38;11.20;;;6.63;;
20207;SDS011;10263;48.716;8.760;2024-01-07T08:21:05;9.27;;;7.23;;
20207;SDS011;10263;48.716;8.760;2024-01-07T08:23:32;9.57;;;6.60;;
20207;SDS011;10263;48.716;8.760;2024-01-07T08:26:01;10.23;;;6.40;;
20207;SDS011;10263;48.716;8.760;2024-01-07T08:28:28;9.03;;;6.73;;
20207;SDS011;10263;48.716;8.760;2024-01-07T08:30:55;9.30;;;6.90;;
20207;SDS011;10263;48.716;8.760;2024-01-07T08:33:22;8.90;;;6.97;;
20207;SDS011;10263;48.716;8.760;2024-01-07T08:35:49;9.63;;;6.77;;
20207;SDS011;10263;48.716;8.760;2024-01-07T08:38:16;9.87;;;6.70;;
20207;SDS011;10263;48.716;8.760;2024-01-07T08:40:43;10.10;;;7.30;;
20207;SDS011;10263;48.716;8.760;2024-01-07T08:43:11;10.50;;;7.27;;
20207;SDS011;10263;48.716;8.760;2024-01-07T08:45:39;11.50;;;8.50;;
20207;SDS011;10263;48.716;8.760;2024-01-07T08:48:07;10.77;;;7.70;;
20207;SDS011;10263;48.716;8.760;2024-01-07T08:50:34;11.03;;;7.73;;
20207;SDS011;10263;48.716;8.760;2024-01-07T08:53:01;11.07;;;7.67;;
20207;SDS011;10263;48.716;8.760;2024-01-07T08:55:28;13.10;;;8.50;;
20207;SDS011;10263;48.716;8.760;2024-01-07T08:57:55;11.00;;;6.90;;
20207;SDS011;10263;48.716;8.760;2024-01-07T09:00:23;12.83;;;7.43;;
20207;SDS011;10263;48.716;8.760;2024-01-07T09:02:52;12.93;;;8.00;;
20207;SDS011;10263;48.716;8.760;2024-01-07T09:05:18;10.97;;;8.17;;
20207;SDS011;10263;48.716;8.760;2024-01-07T09:07:45;10.77;;;6.63;;
20207;SDS011;10263;48.716;8.760;2024-01-07T09:10:12;10.00;;;6.93;;
20207;SDS011;10263;48.716;8.760;2024-01-07T09:12:40;10.27;;;6.87;;
20207;SDS011;10263;48.716;8.760;2024-01-07T09:15:07;10.87;;;6.87;;
20207;SDS011;10263;48.716;8.760;2024-01-07T09:17:36;9.17;;;6.40;;
20207;SDS011;10263;48.716;8.760;2024-01-07T09:20:03;10.20;;;7.30;;
20207;SDS011;10263;48.716;8.760;2024-01-07T09:22:32;10.10;;;6.57;;
20207;SDS011;10263;48.716;8.760;2024-01-07T09:25:00;10.77;;;7.13;;
20207;SDS011;10263;48.716;8.760;2024-01-07T09:27:28;12.00;;;6.83;;
20207;SDS011;10263;48.716;8.760;2024-01-07T09:29:55;12.53;;;7.10;;
20207;SDS011;10263;48.716;8.760;2024-01-07T09:32:22;9.33;;;6.07;;
20207;SDS011;10263;48.716;8.760;2024-01-07T09:34:50;8.93;;;6.90;;
20207;SDS011;10263;48.716;8.760;2024-01-07T09:37:18;10.10;;;6.40;;
20207;SDS011;10263;48.716;8.760;2024-01-07T09:39:44;9.73;;;7.17;;
20207;SDS011;10263;48.716;8.760;2024-01-07T09:42:14;9.83;;;7.17;;
20207;SDS011;10263;48.716;8.760;2024-01-07T09:44:43;10.00;;;6.40;;
20207;SDS011;10263;48.716;8.760;2024-01-07T09:47:11;11.97;;;6.37;;
20207;SDS011;10263;48.716;8.760;2024-01-07T09:49:39;8.50;;;6.47;;
20207;SDS011;10263;48.716;8.760;2024-01-07T09:52:08;10.40;;;7.27;;
20207;SDS011;10263;48.716;8.760;2024-01-07T09:54:36;10.57;;;6.97;;
20207;SDS011;10263;48.716;8.760;2024-01-07T09:57:04;9.27;;;6.17;;
20207;SDS011;10263;48.716;8.760;2024-01-07T09:59:33;12.87;;;8.20;;
20207;SDS011;10263;48.716;8.760;2024-01-07T10:02:00;12.93;;;7.77;;
20207;SDS011;10263;48.716;8.760;2024-01-07T10:04:27;11.27;;;8.00;;
20207;SDS011;10263;48.716;8.760;2024-01-07T10:06:54;13.03;;;7.57;;
20207;SDS011;10263;48.716;8.760;2024-01-07T10:09:23;11.63;;;8.07;;
20207;SDS011;10263;48.716;8.760;2024-01-07T10:11:52;9.67;;;7.23;;
20207;SDS011;10263;48.716;8.760;2024-01-07T10:14:19;10.33;;;7.50;;
20207;SDS011;10263;48.716;8.760;2024-01-07T10:16:47;10.50;;;7.23;;
20207;SDS011;10263;48.716;8.760;2024-01-07T10:19:17;10.83;;;7.40;;
20207;SDS011;10263;48.716;8.760;2024-01-07T10:21:47;14.40;;;8.33;;
20207;SDS011;10263;48.716;8.760;2024-01-07T10:24:27;11.13;;;7.63;;
20207;SDS011;10263;48.716;8.760;2024-01-07T10:27:01;10.00;;;8.00;;
20207;SDS011;10263;48.716;8.760;2024-01-07T10:29:28;11.30;;;6.50;;
20207;SDS011;10263;48.716;8.760;2024-01-07T10:31:55;9.33;;;6.53;;
20207;SDS011;10263;48.716;8.760;2024-01-07T10:34:23;9.20;;;6.80;;
20207;SDS011;10263;48.716;8.760;2024-01-07T10:36:50;12.87;;;8.07;;
20207;SDS011;10263;48.716;8.760;2024-01-07T10:39:19;10.00;;;6.27;;
20207;SDS011;10263;48.716;8.760;2024-01-07T10:41:47;9.60;;;6.83;;
20207;SDS011;10263;48.716;8.760;2024-01-07T10:44:17;10.77;;;6.83;;
20207;SDS011;10263;48.716;8.760;2024-01-07T10:46:45;11.23;;;6.60;;
20207;SDS011;10263;48.716;8.760;2024-01-07T10:49:15;8.30;;;5.97;;
20207;SDS011;10263;48.716;8.760;2024-01-07T10:51:46;8.97;;;5.67;;
20207;SDS011;10263;48.716;8.760;2024-01-07T10:54:21;7.73;;;5.47;;
20207;SDS011;10263;48.716;8.760;2024-01-07T10:56:51;8.23;;;5.77;;
20207;SDS011;10263;48.716;8.760;2024-01-07T10:59:23;7.07;;;5.10;;
20207;SDS011;10263;48.716;8.760;2024-01-07T11:01:52;6.27;;;4.70;;
20207;SDS011;10263;48.716;8.760;2024-01-07T11:04:21;10.03;;;5.87;;
20207;SDS011;10263;48.716;8.760;2024-01-07T11:06:54;8.87;;;5.33;;
20207;SDS011;10263;48.716;8.760;2024-01-07T11:09:26;8.70;;;5.83;;
20207;SDS011;10263;48.716;8.760;2024-01-07T11:12:00;7.37;;;5.20;;
20207;SDS011;10263;48.716;8.760;2024-01-07T11:14:39;7.17;;;4.83;;
20207;SDS011;10263;48.716;8.760;2024-01-07T11:17:10;6.23;;;4.57;;
20207;SDS011;10263;48.716;8.760;2024-01-07T11:19:38;7.63;;;4.80;;
20207;SDS011;10263;48.716;8.760;2024-01-07T11:22:22;7.40;;;5.27;;
20207;SDS011;10263;48.716;8.760;2024-01-07T11:24:52;7.47;;;4.60;;
20207;SDS011;10263;48.716;8.760;2024-01-07T11:27:22;6.23;;;4.63;;
20207;SDS011;10263;48.716;8.760;2024-01-07T11:29:53;9.40;;;4.93;;
20207;SDS011;10263;48.716;8.760;2024-01-07T11:32:21;6.93;;;4.60;;
20207;SDS011;10263;48.716;8.760;2024-01-07T11:34:50;8.67;;;4.90;;
20207;SDS011;10263;48.716;8.760;2024-01-07T11:37:18;7.20;;;4.67;;
20207;SDS011;10263;48.716;8.760;2024-01-07T11:39:46;6.27;;;4.53;;
20207;SDS011;10263;48.716;8.760;2024-01-07T11:42:14;7.30;;;4.47;;
20207;SDS011;10263;48.716;8.760;2024-01-07T11:44:46;5.73;;;4.50;;
20207;SDS011;10263;48.716;8.760;2024-01-07T11:47:13;6.50;;;4.80;;
20207;SDS011;10263;48.716;8.760;2024-01-07T11:49:40;5.33;;;4.50;;
20207;SDS011;10263;48.716;8.760;2024-01-07T11:52:08;5.30;;;3.93;;
20207;SDS011;10263;48.716;8.760;2024-01-07T11:54:35;5.63;;;3.87;;
20207;SDS011;10263;48.716;8.760;2024-01-07T11:57:03;6.60;;;4.43;;
20207;SDS011;10263;48.716;8.760;2024-01-07T11:59:31;7.07;;;4.40;;
20207;SDS011;10263;48.716;8.760;2024-01-07T12:02:00;5.33;;;4.20;;
20207;SDS011;10263;48.716;8.760;2024-01-07T12:04:29;5.63;;;4.10;;
20207;SDS011;10263;48.716;8.760;2024-01-07T12:06:56;5.07;;;3.83;;
20207;SDS011;10263;48.716;8.760;2024-01-07T12:09:23;4.43;;;3.47;;
20207;SDS011;10263;48.716;8.760;2024-01-07T12:11:50;5.37;;;4.00;;
20207;SDS011;10263;48.716;8.760;2024-01-07T12:14:18;5.30;;;3.60;;
20207;SDS011;10263;48.716;8.760;2024-01-07T12:16:45;5.97;;;3.70;;
20207;SDS011;10263;48.716;8.760;2024-01-07T12:19:14;8.03;;;4.70;;
20207;SDS011;10263;48.716;8.760;2024-01-07T12:21:40;4.67;;;3.70;;
20207;SDS011;10263;48.716;8.760;2024-01-07T12:24:07;5.87;;;3.77;;
20207;SDS011;10263;48.716;8.760;2024-01-07T12:26:34;5.67;;;3.80;;
20207;SDS011;10263;48.716;8.760;2024-01-07T12:29:02;7.20;;;4.57;;
20207;SDS011;10263;48.716;8.760;2024-01-07T12:31:31;5.57;;;4.40;;
20207;SDS011;10263;48.716;8.760;2024-01-07T12:33:59;6.30;;;4.40;;
20207;SDS011;10263;48.716;8.760;2024-01-07T12:36:29;5.70;;;4.13;;
20207;SDS011;10263;48.716;8.760;2024-01-07T12:38:57;4.53;;;3.53;;
20207;SDS011;10263;48.716;8.760;2024-01-07T12:41:24;5.97;;;3.90;;
20207;SDS011;10263;48.716;8.760;2024-01-07T12:43:51;5.87;;;3.90;;
20207;SDS011;10263;48.716;8.760;2024-01-07T12:46:18;9.70;;;4.90;;
20207;SDS011;10263;48.716;8.760;2024-01-07T12:48:45;7.20;;;4.97;;
20207;SDS011;10263;48.716;8.760;2024-01-07T12:51:12;7.90;;;5.20;;
20207;SDS011;10263;48.716;8.760;2024-01-07T12:53:40;10.10;;;6.77;;
20207;SDS011;10263;48.716;8.760;2024-01-07T12:56:07;7.63;;;4.80;;
20207;SDS011;10263;48.716;8.760;2024-01-07T12:58:34;7.40;;;4.47;;
20207;SDS011;10263;48.716;8.760;2024-01-07T13:01:01;6.27;;;4.20;;
20207;SDS011;10263;48.716;8.760;2024-01-07T13:03:27;7.83;;;4.53;;
20207;SDS011;10263;48.716;8.760;2024-01-07T13:05:55;6.03;;;4.23;;
20207;SDS011;10263;48.716;8.760;2024-01-07T13:08:22;6.77;;;5.20;;
20207;SDS011;10263;48.716;8.760;2024-01-07T13:10:52;8.10;;;5.43;;
20207;SDS011;10263;48.716;8.760;2024-01-07T13:13:20;6.87;;;5.07;;
20207;SDS011;10263;48.716;8.760;2024-01-07T13:15:46;6.43;;;4.30;;
20207;SDS011;10263;48.716;8.760;2024-01-07T13:18:15;6.90;;;5.30;;
20207;SDS011;10263;48.716;8.760;2024-01-07T13:20:41;8.30;;;5.27;;
20207;SDS011;10263;48.716;8.760;2024-01-07T13:23:08;11.27;;;5.57;;
20207;SDS011;10263;48.716;8.760;2024-01-07T13:25:35;6.77;;;5.13;;
20207;SDS011;10263;48.716;8.760;2024-01-07T13:28:03;7.80;;;4.93;;
20207;SDS011;10263;48.716;8.760;2024-01-07T13:30:35;7.07;;;4.73;;
20207;SDS011;10263;48.716;8.760;2024-01-07T13:33:03;8.07;;;5.80;;
20207;SDS011;10263;48.716;8.760;2024-01-07T13:35:30;8.40;;;5.10;;
20207;SDS011;10263;48.716;8.760;2024-01-07T13:37:57;9.50;;;5.50;;
20207;SDS011;10263;48.716;8.760;2024-01-07T13:40:24;7.50;;;4.53;;
20207;SDS011;10263;48.716;8.760;2024-01-07T13:42:52;7.13;;;4.97;;
20207;SDS011;10263;48.716;8.760;2024-01-07T13:45:20;8.77;;;5.50;;
20207;SDS011;10263;48.716;8.760;2024-01-07T13:47:48;8.53;;;5.40;;
20207;SDS011;10263;48.716;8.760;2024-01-07T13:50:15;7.80;;;5.97;;
20207;SDS011;10263;48.716;8.760;2024-01-07T13:52:42;7.47;;;5.67;;
20207;SDS011;10263;48.716;8.760;2024-01-07T13:55:09;8.30;;;4.87;;
20207;SDS011;10263;48.716;8.760;2024-01-07T13:57:36;10.47;;;6.40;;
20207;SDS011;10263;48.716;8.760;2024-01-07T14:00:04;6.73;;;5.13;;
20207;SDS011;10263;48.716;8.760;2024-01-07T14:02:36;8.73;;;5.33;;
20207;SDS011;10263;48.716;8.760;2024-01-07T14:05:04;9.10;;;6.20;;
20207;SDS011;10263;48.716;8.760;2024-01-07T14:07:34;7.47;;;5.53;;
20207;SDS011;10263;48.716;8.760;2024-01-07T14:10:00;7.87;;;5.73;;
20207;SDS011;10263;48.716;8.760;2024-01-07T14:12:28;9.63;;;5.57;;
20207;SDS011;10263;48.716;8.760;2024-01-07T14:14:55;7.10;;;5.23;;
20207;SDS011;10263;48.716;8.760;2024-01-07T14:17:22;8.23;;;5.93;;
20207;SDS011;10263;48.716;8.760;2024-01-07T14:19:50;10.33;;;6.60;;
20207;SDS011;10263;48.716;8.760;2024-01-07T14:22:18;7.83;;;5.73;;
20207;SDS011;10263;48.716;8.760;2024-01-07T14:24:45;9.10;;;6.37;;
20207;SDS011;10263;48.716;8.760;2024-01-07T14:27:13;11.47;;;5.43;;
20207;SDS011;10263;48.716;8.760;2024-01-07T14:29:40;9.43;;;6.50;;
20207;SDS011;10263;48.716;8.760;2024-01-07T14:32:08;9.47;;;5.67;;
20207;SDS011;10263;48.716;8.760;2024-01-07T14:34:37;9.67;;;7.13;;
20207;SDS011;10263;48.716;8.760;2024-01-07T14:37:06;10.63;;;6.03;;
20207;SDS011;10263;48.716;8.760;2024-01-07T14:39:34;7.83;;;5.60;;
20207;SDS011;10263;48.716;8.760;2024-01-07T14:42:00;9.70;;;6.33;;
20207;SDS011;10263;48.716;8.760;2024-01-07T14:44:28;9.70;;;6.77;;